Friday, January 19, 2018, 2:21 AM EST
Back to Local

KMSV, Monticello, Sullivan County International Airport

Location: Swan Lake, NY, United States Lat: 41.7
Local Time: 2:21 AM EST ( 7:21 GMT) Lon: -74.8
Time Zone: US/Eastern Elev: 1404 ft

Show me the last for .
Show Coded

Time T Td Feel RH Dir Speed Gust Alt SLP Vis Weather Sky Remarks
2018-01-19 01:56 7 5 0 91 270° 3 - 29.95 30.03 9 CLR None
2018-01-19 00:56 9 6 2 87 270° 3 - 29.95 30.02 9 CLR 6-hr Min Temp (1am): 9.0°F
6-hr Max Temp (1am): 16.0°F
2018-01-18 23:56 10 7 4 87 240° 3 - 29.96 30.03 10 CLR 24-hr Min Temp (12am): 1.9°F
24-hr Max Temp (12am): 24.1°F
2018-01-18 22:56 11 7 5 83 260° 3 - 29.98 30.05 10 CLR None
2018-01-18 21:56 11 8 5 87 280° 3 - 29.99 30.06 10 CLR None
2018-01-18 20:56 13 9 3 83 280° 7 - 29.98 30.06 10 CLR None
2018-01-18 19:56 14 10 5 83 280° 6 - 29.97 30.05 10 CLR None
2018-01-18 18:56 16 11 4 80 320° 9 - 29.95 30.03 10 CLR 6-hr Min Temp (7pm): 16.0°F
6-hr Max Temp (7pm): 24.1°F
2018-01-18 17:56 17 11 5 76 310° 10 - 29.93 30.01 10 None
2018-01-18 16:56 20 12 2 70 310° 16 25 29.91 29.98 10 CLR 1-hr Precip Total: Trace
2018-01-18 15:56 23 12 - 62 - - - - - 0 1-hr Precip Total: Trace
6-hr Precip Total (4pm): 0.00"
2018-01-18 14:56 23 12 7 62 300° 20 24 29.89 29.96 6 -SN CLR 1-hr Precip Total: Trace
2018-01-18 14:29 25 12 10 58 310° 17 23 29.90 - 7 -SN CLR 1-hr Precip Total: Trace
2018-01-18 14:20 25 12 9 58 320° 16 26 29.90 - 2 -SN CLR 1-hr Precip Total: Trace
2018-01-18 13:56 23 11 8 59 300° 10 20 29.90 29.98 9 -SN CLR 1-hr Precip Total: Trace
2018-01-18 12:56 23 10 8 56 290° 15 20 29.91 29.99 10 CLR 6-hr Min Temp (1pm): 9.0°F
6-hr Max Temp (1pm): 23.0°F
2018-01-18 11:56 23 10 12 56 280° 10 - 29.95 30.03 10 CLR None
2018-01-18 10:56 22 8 13 54 260° 8 - 29.98 30.06 10 CLR None
2018-01-18 10:24 18 9 6 67 290° 9 - 29.98 - 10 CLR None
2018-01-18 10:16 18 9 6 67 280° 9 - 29.98 - 2 HZ CLR None
2018-01-18 09:56 16 6 3 64 280° 12 - 29.98 30.06 10 CLR None
2018-01-18 08:56 13 6 1 73 280° 9 - 29.99 30.07 10 CLR None
2018-01-18 07:56 11 5 0 76 270° 7 - 29.98 30.07 10 CLR Pressure rising rapidly
2018-01-18 06:56 9 5 -2 83 300° 7 - 29.96 30.05 10 CLR 24-hr Precip Total (7am): 0.01"
6-hr Min Temp (7am): 3.0°F
6-hr Max Temp (7am): 9.0°F
2018-01-18 04:56 8 4 -4 82 300° 8 - 30.00 30.08 10 CLR None
2018-01-18 03:56 6 3 -8 86 290° 9 - 30.02 30.10 10 CLR None
2018-01-18 02:56 6 3 -6 86 270° 7 - 30.04 30.12 10 CLR None

Support USWX by starting your Amazon purchase here.